Time;durP1;ratioP1;P1;durP2;ratioP2;P2;SDS_P1;SDS_P2;PMS_P1;PMS_P2;Temp;Humidity;BMP_temperature;BMP_pressure;BME280_temperature;BME280_humidity;BME280_pressure;Samples;Min_cycle;Max_cycle;Signal;HPM_P1;HPM_P2
2023/06/24 00:02:08;;;;;;;9.40;5.90;;;16.40;99.90;;;;;;4991563;28;20022;-64
2023/06/24 00:04:33;;;;;;;16.98;6.28;;;16.40;99.90;;;;;;4994856;28;20507;-63
2023/06/24 00:07:00;;;;;;;9.63;6.05;;;16.40;99.90;;;;;;4995112;28;20054;-64
2023/06/24 00:09:29;;;;;;;10.05;5.47;;;16.40;99.90;;;;;;5005627;23;20557;-66
2023/06/24 00:11:56;;;;;;;10.45;5.57;;;16.40;99.90;;;;;;4994595;28;20022;-67
2023/06/24 00:14:24;;;;;;;6.97;5.32;;;16.40;99.90;;;;;;4999733;28;20117;-67
2023/06/24 00:16:54;;;;;;;7.68;5.45;;;16.30;99.90;;;;;;4994100;28;20030;-66
2023/06/24 00:19:20;;;;;;;7.85;5.32;;;16.30;99.90;;;;;;5011835;28;20472;-66
2023/06/24 00:21:47;;;;;;;9.52;5.00;;;16.30;99.90;;;;;;4989951;28;20388;-66
2023/06/24 00:24:12;;;;;;;7.68;4.75;;;16.20;99.90;;;;;;4985124;28;20046;-65
2023/06/24 00:26:38;;;;;;;7.82;5.85;;;16.20;99.90;;;;;;4990494;28;20431;-66
2023/06/24 00:29:03;;;;;;;7.80;5.80;;;16.20;99.90;;;;;;4978976;28;20026;-66
2023/06/24 00:31:29;;;;;;;7.80;5.32;;;16.10;99.90;;;;;;4981316;28;20097;-66
2023/06/24 00:33:55;;;;;;;11.23;6.20;;;16.10;99.90;;;;;;4985741;28;20073;-65
2023/06/24 00:36:21;;;;;;;7.95;5.30;;;16.10;99.90;;;;;;4990474;28;20026;-65
2023/06/24 00:38:48;;;;;;;8.48;5.50;;;16.20;99.90;;;;;;4978282;28;20054;-66
2023/06/24 00:41:15;;;;;;;8.20;5.70;;;16.10;99.90;;;;;;4978525;28;20019;-65
2023/06/24 00:43:41;;;;;;;7.32;5.15;;;16.10;99.90;;;;;;4975862;28;20019;-65
2023/06/24 00:46:07;;;;;;;9.98;5.43;;;16.10;99.90;;;;;;4988243;28;20034;-66
2023/06/24 00:48:33;;;;;;;11.75;5.40;;;16.10;99.90;;;;;;4979356;28;20069;-66
2023/06/24 00:50:58;;;;;;;13.38;5.35;;;16.10;99.90;;;;;;4987458;28;20037;-66
2023/06/24 00:53:24;;;;;;;8.10;5.90;;;16.00;99.90;;;;;;4990672;28;20032;-65
2023/06/24 00:55:52;;;;;;;8.77;5.35;;;16.00;99.90;;;;;;4988447;28;20030;-66
2023/06/24 00:58:20;;;;;;;10.25;5.50;;;15.90;99.90;;;;;;4990055;28;20077;-65
2023/06/24 01:00:48;;;;;;;7.53;5.50;;;15.90;99.90;;;;;;4990097;28;20436;-65
2023/06/24 01:03:14;;;;;;;9.98;5.93;;;15.80;99.90;;;;;;4991538;28;20041;-65
2023/06/24 01:05:46;;;;;;;9.45;6.15;;;15.70;99.90;;;;;;4983484;28;20027;-66
2023/06/24 01:08:15;;;;;;;17.00;6.10;;;15.70;99.90;;;;;;4987271;28;20030;-67
2023/06/24 01:10:41;;;;;;;8.80;5.63;;;15.60;99.90;;;;;;4992256;28;20057;-65
2023/06/24 01:13:07;;;;;;;8.50;5.93;;;15.60;99.90;;;;;;4989512;28;20038;-66
2023/06/24 01:15:33;;;;;;;8.77;5.57;;;15.60;99.90;;;;;;4991441;28;20064;-65
2023/06/24 01:18:08;;;;;;;10.95;6.38;;;15.50;99.90;;;;;;4991852;28;20041;-65
2023/06/24 01:20:56;;;;;;;9.05;5.70;;;15.50;99.90;;;;;;4993820;28;20376;-65
2023/06/24 01:23:59;;;;;;;8.60;6.03;;;15.50;99.90;;;;;;4980970;28;20022;-65
2023/06/24 01:27:04;;;;;;;9.38;5.47;;;15.40;99.90;;;;;;4988370;28;20038;-65
2023/06/24 01:29:54;;;;;;;10.15;5.75;;;15.40;99.90;;;;;;4989069;28;20093;-65
2023/06/24 01:32:33;;;;;;;7.35;5.10;;;15.40;99.90;;;;;;4975064;28;20058;-66
2023/06/24 01:35:11;;;;;;;6.63;5.03;;;15.40;99.90;;;;;;4977521;28;20392;-65
2023/06/24 01:37:47;;;;;;;9.90;5.28;;;15.30;99.90;;;;;;4986176;28;20075;-65
2023/06/24 01:40:30;;;;;;;13.27;5.63;;;15.30;99.90;;;;;;4993532;28;20025;-65
2023/06/24 01:43:01;;;;;;;11.05;6.20;;;15.30;99.90;;;;;;4991210;28;20522;-66
2023/06/24 01:45:30;;;;;;;9.18;5.55;;;15.20;99.90;;;;;;4985476;28;20117;-66
2023/06/24 01:48:13;;;;;;;8.30;5.35;;;15.20;99.90;;;;;;4987761;28;20022;-65
2023/06/24 01:50:42;;;;;;;9.20;5.95;;;15.10;99.90;;;;;;4992627;28;20110;-66
2023/06/24 01:53:08;;;;;;;9.05;5.32;;;15.10;99.90;;;;;;4979435;28;20031;-66
2023/06/24 01:55:37;;;;;;;12.93;5.25;;;15.10;99.90;;;;;;4988310;28;20384;-66
2023/06/24 01:58:07;;;;;;;9.35;5.50;;;15.10;99.90;;;;;;4993598;28;20069;-66
2023/06/24 02:00:34;;;;;;;8.93;6.32;;;15.10;99.90;;;;;;4989673;28;20019;-66
2023/06/24 02:03:01;;;;;;;8.70;5.60;;;15.10;99.90;;;;;;4993441;28;20046;-65
2023/06/24 02:05:28;;;;;;;11.18;6.63;;;15.10;99.90;;;;;;4986132;28;20441;-66
2023/06/24 02:07:54;;;;;;;14.60;6.38;;;15.10;99.90;;;;;;4979438;28;20018;-66
2023/06/24 02:10:22;;;;;;;11.07;6.35;;;15.10;99.90;;;;;;4983561;28;20495;-66
2023/06/24 02:12:52;;;;;;;11.68;6.68;;;15.00;99.90;;;;;;4982463;28;20023;-66
2023/06/24 02:15:19;;;;;;;11.38;6.07;;;14.90;99.90;;;;;;4988231;28;20023;-66
2023/06/24 02:17:47;;;;;;;10.75;6.60;;;14.90;99.90;;;;;;4991274;28;20042;-65
2023/06/24 02:20:16;;;;;;;8.52;6.45;;;14.90;99.90;;;;;;4988055;28;20144;-66
2023/06/24 02:22:44;;;;;;;8.82;6.05;;;14.90;99.90;;;;;;4999994;28;20113;-65
2023/06/24 02:25:09;;;;;;;9.73;5.75;;;14.90;99.90;;;;;;4981705;28;20024;-65
2023/06/24 02:27:36;;;;;;;8.15;6.13;;;14.90;99.90;;;;;;4983819;28;20014;-65
2023/06/24 02:30:04;;;;;;;9.35;6.75;;;14.80;99.90;;;;;;4979168;28;20086;-66
2023/06/24 02:32:30;;;;;;;9.63;6.07;;;14.80;99.90;;;;;;4977177;28;20043;-66
2023/06/24 02:34:58;;;;;;;9.55;5.82;;;14.80;99.90;;;;;;4987369;28;20132;-65
2023/06/24 02:37:24;;;;;;;11.73;5.90;;;14.80;99.90;;;;;;4999222;28;20424;-66
2023/06/24 02:39:49;;;;;;;11.70;6.07;;;14.70;99.90;;;;;;4982770;28;20038;-66
2023/06/24 02:42:15;;;;;;;13.23;6.10;;;14.80;99.90;;;;;;4983205;28;20030;-65
2023/06/24 02:44:42;;;;;;;11.40;6.13;;;14.80;99.90;;;;;;4977448;28;20023;-66
2023/06/24 02:47:10;;;;;;;8.02;5.82;;;14.70;99.90;;;;;;4985653;28;20130;-66
2023/06/24 02:49:38;;;;;;;8.48;6.20;;;14.70;99.90;;;;;;4991386;28;20018;-62
2023/06/24 02:52:04;;;;;;;12.20;7.22;;;14.70;99.90;;;;;;4980629;28;20433;-65
2023/06/24 02:54:30;;;;;;;7.65;5.50;;;14.70;99.90;;;;;;4984582;28;20495;-66
2023/06/24 02:56:57;;;;;;;9.88;6.43;;;14.60;99.90;;;;;;4991114;28;20043;-65
2023/06/24 02:59:24;;;;;;;11.10;6.75;;;14.60;99.90;;;;;;4994074;28;21597;-66
2023/06/24 03:01:54;;;;;;;10.63;6.57;;;14.50;99.90;;;;;;4984020;28;20109;-66
2023/06/24 03:04:20;;;;;;;12.52;6.80;;;14.50;99.90;;;;;;4985000;28;20022;-66
2023/06/24 03:06:48;;;;;;;16.05;7.57;;;14.50;99.90;;;;;;4980313;28;20026;-66
2023/06/24 03:09:15;;;;;;;8.20;5.50;;;14.50;99.90;;;;;;4973807;28;20027;-66
2023/06/24 03:11:44;;;;;;;9.93;5.95;;;14.50;99.90;;;;;;4990061;28;20157;-66
2023/06/24 03:14:11;;;;;;;9.43;5.75;;;14.50;99.90;;;;;;4979860;28;20015;-66
2023/06/24 03:16:38;;;;;;;8.90;6.43;;;14.50;99.90;;;;;;4984566;28;20102;-66
2023/06/24 03:19:04;;;;;;;13.98;7.05;;;14.50;99.90;;;;;;4984908;28;20484;-66
2023/06/24 03:21:30;;;;;;;8.90;6.32;;;14.50;99.90;;;;;;4988991;28;20030;-66
2023/06/24 03:23:56;;;;;;;11.38;6.50;;;14.50;99.90;;;;;;4990307;28;20030;-66
2023/06/24 03:26:22;;;;;;;7.75;5.22;;;14.60;99.90;;;;;;4987065;28;20023;-66
2023/06/24 03:28:48;;;;;;;10.95;6.20;;;14.60;99.90;;;;;;4980302;28;20027;-66
2023/06/24 03:31:15;;;;;;;14.25;6.45;;;14.70;99.90;;;;;;4988314;28;20072;-66
2023/06/24 03:33:44;;;;;;;11.82;5.88;;;14.70;99.90;;;;;;4990092;28;20077;-66
2023/06/24 03:36:10;;;;;;;9.07;6.43;;;14.60;99.90;;;;;;4991247;28;20025;-66
2023/06/24 03:38:36;;;;;;;12.75;6.30;;;14.60;99.90;;;;;;4979280;28;20026;-65
2023/06/24 03:41:02;;;;;;;9.10;6.10;;;14.60;99.90;;;;;;4978772;28;20481;-66
2023/06/24 03:43:27;;;;;;;11.77;6.15;;;14.60;99.90;;;;;;4974278;28;20106;-66
2023/06/24 03:45:53;;;;;;;12.20;5.80;;;14.70;99.90;;;;;;4990260;28;20113;-66
2023/06/24 03:48:18;;;;;;;10.07;6.50;;;14.80;99.90;;;;;;4991433;28;20035;-66
2023/06/24 03:50:44;;;;;;;13.77;6.30;;;14.80;99.90;;;;;;4979096;28;20500;-66
2023/06/24 03:53:09;;;;;;;11.63;6.28;;;14.90;99.90;;;;;;4979163;28;20475;-66
2023/06/24 03:55:35;;;;;;;13.75;5.75;;;15.00;99.90;;;;;;4975957;28;20057;-66
2023/06/24 03:58:00;;;;;;;7.38;4.93;;;15.10;99.90;;;;;;4977882;28;21297;-66
2023/06/24 04:00:26;;;;;;;8.98;5.18;;;15.10;99.90;;;;;;4985607;28;20399;-66
2023/06/24 04:02:53;;;;;;;9.05;5.50;;;15.20;99.90;;;;;;4989681;28;20029;-65
2023/06/24 04:05:19;;;;;;;8.48;5.65;;;15.30;99.90;;;;;;4979330;28;20019;-65
2023/06/24 04:07:46;;;;;;;10.23;5.60;;;15.40;99.90;;;;;;4978881;28;20484;-66
2023/06/24 04:10:13;;;;;;;10.00;5.70;;;15.50;99.90;;;;;;4977751;28;20038;-66
2023/06/24 04:12:38;;;;;;;12.07;5.53;;;15.50;99.90;;;;;;4979293;28;20046;-66
2023/06/24 04:15:05;;;;;;;11.57;5.50;;;15.60;99.90;;;;;;4990791;28;20022;-62
2023/06/24 04:17:31;;;;;;;10.10;5.47;;;15.70;99.90;;;;;;4988600;28;20022;-66
2023/06/24 04:19:57;;;;;;;7.25;5.15;;;15.70;99.90;;;;;;4989024;28;20041;-66
2023/06/24 04:22:23;;;;;;;8.38;5.78;;;15.80;99.90;;;;;;4984141;28;20019;-66
2023/06/24 04:24:49;;;;;;;9.90;5.30;;;15.90;99.90;;;;;;4977727;28;20541;-66
2023/06/24 04:27:14;;;;;;;8.85;5.78;;;16.00;99.90;;;;;;4980587;28;20109;-67
2023/06/24 04:29:40;;;;;;;6.55;5.03;;;16.00;99.90;;;;;;4989640;28;20480;-67
2023/06/24 04:32:06;;;;;;;8.15;5.43;;;16.00;99.90;;;;;;4990246;28;20026;-66
2023/06/24 04:34:32;;;;;;;12.60;5.95;;;16.10;99.90;;;;;;4990769;28;20058;-66
2023/06/24 04:36:58;;;;;;;7.68;5.13;;;16.40;99.90;;;;;;4979621;28;20582;-65
2023/06/24 04:39:23;;;;;;;6.55;5.10;;;16.90;99.90;;;;;;4982700;28;20088;-66
2023/06/24 04:41:49;;;;;;;7.63;4.65;;;17.70;99.90;;;;;;4984457;28;20105;-66
2023/06/24 04:44:14;;;;;;;6.40;4.25;;;18.60;99.90;;;;;;4991754;28;20022;-66
2023/06/24 04:46:40;;;;;;;5.35;4.35;;;19.30;99.90;;;;;;4994398;28;20042;-66
2023/06/24 04:49:06;;;;;;;8.20;3.80;;;20.30;99.90;;;;;;4981100;28;20102;-65
2023/06/24 04:51:32;;;;;;;5.78;3.55;;;20.90;99.90;;;;;;4983749;28;20034;-66
2023/06/24 04:53:57;;;;;;;6.10;3.70;;;21.60;99.90;;;;;;4981566;28;20034;-66
2023/06/24 04:56:24;;;;;;;4.97;3.65;;;22.30;99.90;;;;;;4991355;28;20069;-66
2023/06/24 04:58:50;;;;;;;6.10;3.88;;;22.40;99.90;;;;;;4993681;28;20519;-66
2023/06/24 05:01:16;;;;;;;8.50;3.67;;;22.30;99.90;;;;;;4990323;28;20031;-67
2023/06/24 05:03:41;;;;;;;9.02;3.85;;;22.30;99.90;;;;;;4978524;28;20033;-66
2023/06/24 05:06:07;;;;;;;5.38;3.70;;;22.80;99.40;;;;;;4980698;28;20019;-66
2023/06/24 05:08:32;;;;;;;5.63;3.42;;;22.90;99.90;;;;;;4988303;28;20466;-66
2023/06/24 05:10:59;;;;;;;5.65;3.67;;;23.00;99.20;;;;;;4992369;28;20070;-66
2023/06/24 05:13:27;;;;;;;4.75;3.45;;;23.10;98.00;;;;;;4993341;28;20566;-66
2023/06/24 05:15:52;;;;;;;5.30;3.35;;;22.90;99.00;;;;;;4991559;28;20388;-66
2023/06/24 05:18:18;;;;;;;6.75;3.97;;;23.00;98.80;;;;;;4984591;28;20021;-66
2023/06/24 05:20:43;;;;;;;5.63;3.58;;;23.20;98.00;;;;;;4979832;28;20459;-66
2023/06/24 05:23:09;;;;;;;5.43;3.65;;;23.70;97.10;;;;;;4983906;28;20031;-67
2023/06/24 05:25:35;;;;;;;4.40;3.45;;;24.30;96.50;;;;;;4993081;28;20034;-65
2023/06/24 05:28:00;;;;;;;6.45;3.88;;;25.30;94.70;;;;;;4987458;28;20046;-66
2023/06/24 05:30:26;;;;;;;5.30;3.25;;;25.50;91.10;;;;;;4988171;28;20072;-67
2023/06/24 05:32:52;;;;;;;4.82;3.35;;;25.70;91.20;;;;;;4992153;28;20026;-67
2023/06/24 05:35:17;;;;;;;4.38;3.10;;;26.10;91.40;;;;;;4989603;28;20070;-67
2023/06/24 05:37:43;;;;;;;5.13;3.20;;;26.10;89.50;;;;;;4979575;28;20026;-66
2023/06/24 05:40:09;;;;;;;5.15;3.45;;;26.50;90.00;;;;;;4983845;28;20019;-66
2023/06/24 05:42:35;;;;;;;5.40;3.28;;;27.20;87.20;;;;;;4977809;28;20029;-66
2023/06/24 05:45:00;;;;;;;5.40;3.90;;;27.50;86.00;;;;;;4985172;28;20415;-66
2023/06/24 05:47:26;;;;;;;6.45;3.30;;;28.00;84.20;;;;;;4993453;28;20044;-66
2023/06/24 05:49:51;;;;;;;4.78;3.22;;;27.90;82.30;;;;;;4985056;28;20027;-66
2023/06/24 05:52:17;;;;;;;6.22;3.40;;;27.60;82.00;;;;;;4986897;28;20015;-66
2023/06/24 05:54:42;;;;;;;4.32;3.17;;;27.60;81.30;;;;;;4986198;28;20077;-67
2023/06/24 05:57:09;;;;;;;5.90;3.78;;;27.80;82.10;;;;;;4983310;28;20499;-66
2023/06/24 05:59:34;;;;;;;4.30;3.38;;;27.70;80.50;;;;;;4978481;28;20050;-67
2023/06/24 06:02:01;;;;;;;5.07;3.67;;;27.90;80.80;;;;;;4981900;28;20034;-67
2023/06/24 06:04:27;;;;;;;3.88;2.90;;;29.30;78.20;;;;;;4988113;28;20089;-66
2023/06/24 06:06:53;;;;;;;7.45;3.60;;;29.40;78.30;;;;;;4992899;28;20439;-67
2023/06/24 06:09:20;;;;;;;4.60;3.78;;;28.70;78.60;;;;;;4982825;28;20030;-67
2023/06/24 06:11:45;;;;;;;7.15;4.10;;;28.60;78.30;;;;;;5005972;23;20056;-64
2023/06/24 06:14:11;;;;;;;5.72;3.53;;;29.20;76.60;;;;;;5012015;28;20483;-64
2023/06/24 06:16:36;;;;;;;5.45;3.95;;;29.20;77.50;;;;;;5001236;28;20057;-63
2023/06/24 06:19:02;;;;;;;5.03;3.33;;;29.30;77.50;;;;;;4999509;28;20120;-63
2023/06/24 06:21:28;;;;;;;3.90;3.00;;;31.70;73.20;;;;;;5006478;28;20025;-63
2023/06/24 06:23:54;;;;;;;6.25;3.00;;;32.40;70.90;;;;;;5006517;28;20030;-63
2023/06/24 06:26:19;;;;;;;4.22;3.70;;;31.70;70.70;;;;;;5005474;28;20546;-63
2023/06/24 06:28:47;;;;;;;4.85;3.67;;;30.70;73.00;;;;;;5008636;28;20100;-64
2023/06/24 06:31:13;;;;;;;3.78;3.38;;;31.90;71.80;;;;;;4991121;28;20018;-64
2023/06/24 06:33:38;;;;;;;4.03;2.80;;;31.40;70.70;;;;;;5002141;28;20029;-64
2023/06/24 06:36:04;;;;;;;5.97;3.40;;;32.20;71.20;;;;;;5004402;28;20030;-64
2023/06/24 06:38:29;;;;;;;4.28;2.90;;;32.50;69.60;;;;;;5005070;28;20013;-64
2023/06/24 06:40:55;;;;;;;5.20;3.53;;;33.50;69.10;;;;;;4991364;28;20054;-64
2023/06/24 06:43:21;;;;;;;5.43;3.40;;;33.20;67.00;;;;;;5005733;28;20026;-65
2023/06/24 06:45:47;;;;;;;9.70;3.92;;;31.80;70.20;;;;;;4997792;28;20527;-65
2023/06/24 06:48:12;;;;;;;5.45;3.40;;;31.60;71.30;;;;;;5003576;28;20049;-64
2023/06/24 06:50:38;;;;;;;5.63;3.45;;;32.60;71.40;;;;;;5004182;28;20076;-63
2023/06/24 06:53:03;;;;;;;5.18;4.22;;;33.80;67.90;;;;;;5004184;28;20501;-64
2023/06/24 06:55:29;;;;;;;7.30;4.80;;;32.00;68.80;;;;;;5000299;28;20030;-64
2023/06/24 06:57:55;;;;;;;6.28;4.97;;;31.00;69.90;;;;;;5005982;28;20022;-64
2023/06/24 07:00:21;;;;;;;5.72;3.63;;;30.50;71.00;;;;;;4989690;28;20411;-65
2023/06/24 07:02:46;;;;;;;4.20;3.78;;;30.60;72.60;;;;;;5001121;28;20026;-65
2023/06/24 07:05:12;;;;;;;5.93;4.38;;;30.80;72.00;;;;;;5005571;28;20037;-64
2023/06/24 07:07:38;;;;;;;6.22;4.15;;;32.20;69.40;;;;;;4997588;28;20027;-64
2023/06/24 07:10:05;;;;;;;9.00;5.47;;;31.80;70.30;;;;;;5005265;28;20749;-64
2023/06/24 07:12:30;;;;;;;10.98;5.70;;;31.60;69.80;;;;;;4999124;28;20034;-65
2023/06/24 07:14:56;;;;;;;5.70;4.60;;;31.40;69.70;;;;;;4996116;28;20107;-66
2023/06/24 07:17:22;;;;;;;8.02;5.35;;;31.60;70.10;;;;;;4995290;28;20033;-65
2023/06/24 07:19:47;;;;;;;9.43;5.10;;;31.50;70.30;;;;;;5008842;28;20018;-65
2023/06/24 07:22:14;;;;;;;7.78;5.28;;;31.10;70.30;;;;;;4986322;28;20058;-65
2023/06/24 07:24:39;;;;;;;7.28;5.75;;;30.90;72.50;;;;;;4993401;28;20030;-64
2023/06/24 07:27:05;;;;;;;8.70;5.03;;;31.10;72.00;;;;;;4984305;28;20034;-64
2023/06/24 07:29:31;;;;;;;8.48;5.57;;;31.40;72.30;;;;;;5000264;28;20021;-65
2023/06/24 07:31:57;;;;;;;9.68;4.90;;;32.10;72.50;;;;;;4997939;28;20034;-64
2023/06/24 07:34:22;;;;;;;6.53;5.80;;;33.80;68.50;;;;;;5004490;28;20038;-64
2023/06/24 07:36:50;;;;;;;9.68;6.00;;;33.70;68.00;;;;;;5000704;28;20022;-65
2023/06/24 07:39:16;;;;;;;8.25;5.80;;;33.30;68.00;;;;;;5006299;28;20514;-64
2023/06/24 07:41:42;;;;;;;10.65;6.40;;;33.50;68.90;;;;;;4995392;28;20030;-64
2023/06/24 07:44:08;;;;;;;8.55;7.30;;;33.20;67.40;;;;;;4995776;28;20022;-66
2023/06/24 07:46:34;;;;;;;9.38;6.32;;;32.90;68.60;;;;;;4995163;28;20033;-64
2023/06/24 07:49:00;;;;;;;15.07;7.32;;;33.40;68.30;;;;;;4999094;28;20053;-64
2023/06/24 07:51:25;;;;;;;8.98;6.63;;;33.50;66.90;;;;;;5005504;28;20057;-64
2023/06/24 07:53:51;;;;;;;8.50;6.43;;;34.30;65.60;;;;;;5001615;28;20018;-64
2023/06/24 07:56:16;;;;;;;10.20;6.60;;;33.00;69.10;;;;;;4984706;28;20080;-65
2023/06/24 07:58:42;;;;;;;13.98;6.57;;;32.50;69.50;;;;;;4991317;28;20027;-64
2023/06/24 08:01:08;;;;;;;11.32;7.78;;;32.30;70.00;;;;;;5003544;28;20031;-62
2023/06/24 08:03:34;;;;;;;10.45;6.75;;;32.60;68.40;;;;;;4994236;28;20030;-64
2023/06/24 08:06:00;;;;;;;11.07;6.35;;;32.60;69.00;;;;;;5003264;28;20030;-64
2023/06/24 08:08:25;;;;;;;9.73;6.65;;;33.00;69.20;;;;;;5003775;28;20607;-64
2023/06/24 08:10:51;;;;;;;7.85;6.25;;;33.70;69.50;;;;;;4992374;28;20018;-66
2023/06/24 08:13:16;;;;;;;10.88;6.60;;;34.20;67.40;;;;;;5005289;28;20060;-64
2023/06/24 08:15:42;;;;;;;10.00;6.43;;;34.10;66.50;;;;;;5003182;28;20087;-64
2023/06/24 08:18:08;;;;;;;8.70;6.10;;;33.90;66.40;;;;;;5001152;28;20034;-66
2023/06/24 08:20:33;;;;;;;10.73;7.40;;;33.80;67.30;;;;;;4994448;28;20018;-66
2023/06/24 08:22:59;;;;;;;10.05;7.18;;;33.40;66.80;;;;;;4994318;28;20102;-64
2023/06/24 08:25:43;;;;;;;9.15;6.80;;;33.20;66.50;;;;;;5001234;28;20018;-64
2023/06/24 08:28:09;;;;;;;8.95;6.47;;;34.00;68.40;;;;;;5006428;28;20030;-64
2023/06/24 08:30:34;;;;;;;14.57;7.65;;;34.70;66.90;;;;;;4989295;28;20083;-66
2023/06/24 08:33:00;;;;;;;12.02;7.85;;;35.00;66.60;;;;;;4997217;28;20026;-65
2023/06/24 08:35:26;;;;;;;9.65;6.47;;;34.70;65.90;;;;;;4997175;28;20029;-65
2023/06/24 08:37:51;;;;;;;8.85;6.90;;;34.80;66.10;;;;;;4999996;28;20483;-65
2023/06/24 08:40:17;;;;;;;14.70;7.53;;;35.00;65.60;;;;;;4994355;28;20715;-65
2023/06/24 08:42:43;;;;;;;11.05;6.90;;;34.60;65.80;;;;;;5003210;28;20018;-65
2023/06/24 08:45:09;;;;;;;9.05;6.75;;;34.90;66.90;;;;;;4996108;28;20484;-59
2023/06/24 08:47:35;;;;;;;10.95;7.30;;;34.40;66.30;;;;;;4989122;28;20041;-65
2023/06/24 08:50:08;;;;;;;9.63;6.68;;;34.30;64.90;;;;;;4998784;28;20093;-64
2023/06/24 08:52:38;;;;;;;8.75;6.30;;;34.70;65.50;;;;;;5001598;28;20052;-65
2023/06/24 08:55:06;;;;;;;14.35;6.55;;;34.60;67.90;;;;;;5000271;28;20088;-65
2023/06/24 08:57:32;;;;;;;10.93;6.38;;;34.80;66.40;;;;;;5000404;28;20049;-65
2023/06/24 08:59:58;;;;;;;8.98;6.90;;;35.20;64.50;;;;;;4996157;28;20521;-62
2023/06/24 09:02:24;;;;;;;11.35;6.75;;;34.70;65.20;;;;;;5003497;28;20434;-65
2023/06/24 09:04:51;;;;;;;14.45;5.78;;;34.30;67.50;;;;;;5004603;28;20026;-64
2023/06/24 09:07:30;;;;;;;12.70;6.00;;;34.50;66.60;;;;;;5006082;28;20038;-62
2023/06/24 09:09:56;;;;;;;6.00;5.18;;;34.00;65.60;;;;;;5006278;28;20105;-64
2023/06/24 09:12:24;;;;;;;9.75;5.20;;;34.10;67.30;;;;;;4996430;28;20113;-65
2023/06/24 09:14:50;;;;;;;5.43;4.45;;;35.40;67.00;;;;;;4988155;28;20031;-65
2023/06/24 09:17:17;;;;;;;9.57;5.32;;;35.40;64.90;;;;;;4998567;28;20499;-65
2023/06/24 09:19:42;;;;;;;8.38;5.38;;;35.80;63.90;;;;;;5001125;28;20022;-66
2023/06/24 09:22:16;;;;;;;9.65;6.18;;;35.40;63.70;;;;;;4992296;28;20026;-65
2023/06/24 09:24:42;;;;;;;7.45;5.40;;;35.60;63.40;;;;;;5004312;28;20026;-64
2023/06/24 09:27:08;;;;;;;9.02;5.13;;;35.20;63.80;;;;;;5005771;28;20034;-59
2023/06/24 09:29:35;;;;;;;5.70;4.80;;;34.90;63.30;;;;;;5001141;28;20031;-65
2023/06/24 09:32:05;;;;;;;13.10;5.40;;;34.70;64.20;;;;;;4997249;28;20129;-66
2023/06/24 09:34:31;;;;;;;11.10;5.93;;;35.60;63.90;;;;;;5007302;28;20076;-65
2023/06/24 09:36:57;;;;;;;8.02;5.38;;;35.70;63.50;;;;;;5010359;28;20038;-65
2023/06/24 09:39:29;;;;;;;10.85;4.85;;;34.90;64.70;;;;;;4998141;28;20622;-64
2023/06/24 09:41:56;;;;;;;7.28;4.60;;;35.10;64.30;;;;;;5003141;28;20100;-64
2023/06/24 09:44:21;;;;;;;6.70;4.90;;;35.10;65.50;;;;;;4993236;28;20031;-64
2023/06/24 09:46:47;;;;;;;5.38;3.92;;;35.90;63.90;;;;;;4995383;28;20018;-64
2023/06/24 09:49:13;;;;;;;6.10;4.55;;;35.60;64.80;;;;;;5007988;28;20476;-64
2023/06/24 09:51:43;;;;;;;12.77;5.05;;;35.10;63.40;;;;;;5006895;28;20407;-65
2023/06/24 09:54:10;;;;;;;6.55;4.50;;;35.00;62.10;;;;;;5009511;28;20092;-64
2023/06/24 09:56:39;;;;;;;5.50;3.78;;;34.40;64.50;;;;;;4999449;28;20026;-64
2023/06/24 09:59:06;;;;;;;6.00;3.60;;;34.60;64.40;;;;;;4997850;28;20117;-65
2023/06/24 10:01:35;;;;;;;5.55;4.13;;;34.30;63.50;;;;;;5001734;28;20065;-64
2023/06/24 10:04:01;;;;;;;8.35;4.22;;;34.10;65.00;;;;;;5004522;28;20034;-64
2023/06/24 10:06:27;;;;;;;6.75;3.92;;;34.20;64.70;;;;;;5008508;28;20030;-66
2023/06/24 10:08:53;;;;;;;6.63;5.13;;;34.50;64.30;;;;;;5006638;28;20018;-65
2023/06/24 10:11:19;;;;;;;11.63;5.32;;;34.40;64.30;;;;;;5008679;28;20021;-63
2023/06/24 10:13:44;;;;;;;7.05;4.82;;;33.40;64.70;;;;;;5007270;28;20100;-64
2023/06/24 10:16:10;;;;;;;10.30;4.75;;;32.90;66.80;;;;;;4999470;28;20153;-64
2023/06/24 10:18:38;;;;;;;7.18;5.03;;;32.80;63.80;;;;;;5008104;28;20041;-63
2023/06/24 10:21:05;;;;;;;6.03;4.32;;;32.10;65.60;;;;;;4997215;28;20400;-65
2023/06/24 10:23:48;;;;;;;7.65;4.22;;;32.10;65.80;;;;;;5002644;28;20077;-64
2023/06/24 10:26:24;;;;;;;;;;;32.20;66.60;;;;;;5010014;28;20026;-63
2023/06/24 10:29:05;;;;;;;9.02;4.65;;;32.20;64.80;;;;;;4994881;28;19910;-65
2023/06/24 10:31:40;;;;;;;5.60;3.80;;;32.00;65.00;;;;;;4998847;28;20443;-62
2023/06/24 10:34:28;;;;;;;7.13;3.50;;;32.00;67.20;;;;;;4989156;28;20046;-63
2023/06/24 10:36:55;;;;;;;6.40;3.65;;;31.40;65.50;;;;;;4995083;28;20034;-63
2023/06/24 10:39:39;;;;;;;6.30;4.47;;;31.70;65.10;;;;;;5005521;28;20026;-63
2023/06/24 10:42:23;;;;;;;6.25;3.78;;;31.50;65.10;;;;;;5005557;28;20031;-65
2023/06/24 10:44:50;;;;;;;5.95;3.17;;;31.80;68.00;;;;;;4993376;28;20037;-64
2023/06/24 10:47:16;;;;;;;5.20;3.70;;;32.00;66.90;;;;;;5002569;28;20535;-63
2023/06/24 10:49:41;;;;;;;5.57;3.30;;;32.00;64.70;;;;;;5007991;28;20113;-62
2023/06/24 10:52:11;;;;;;;7.80;4.30;;;31.60;64.50;;;;;;5003923;28;20044;-65
2023/06/24 10:54:40;;;;;;;7.20;3.97;;;31.40;66.00;;;;;;4995294;28;20041;-63
2023/06/24 10:57:11;;;;;;;4.75;3.28;;;31.10;65.00;;;;;;5000576;28;20061;-64
2023/06/24 10:59:47;;;;;;;5.72;3.65;;;31.10;63.70;;;;;;5009469;28;20487;-64
2023/06/24 11:02:17;;;;;;;6.78;4.03;;;31.40;64.80;;;;;;4996358;28;20061;-63
2023/06/24 11:04:48;;;;;;;5.88;2.90;;;31.80;64.80;;;;;;4991473;28;20026;-63
2023/06/24 11:07:14;;;;;;;12.00;3.53;;;32.00;65.70;;;;;;4997221;28;20061;-62
2023/06/24 11:09:44;;;;;;;6.18;3.80;;;31.80;63.00;;;;;;5003983;28;20026;-64
2023/06/24 11:12:10;;;;;;;4.70;3.00;;;31.80;63.40;;;;;;5002151;28;20033;-64
2023/06/24 11:14:39;;;;;;;4.88;3.22;;;31.60;61.50;;;;;;5005986;28;20022;-64
2023/06/24 11:17:05;;;;;;;4.95;2.97;;;31.10;63.60;;;;;;5008794;28;20035;-64
2023/06/24 11:19:34;;;;;;;5.47;3.20;;;30.50;64.50;;;;;;5003646;28;20117;-64
2023/06/24 11:22:00;;;;;;;6.82;3.55;;;30.30;63.60;;;;;;4991981;28;20077;-64
2023/06/24 11:24:27;;;;;;;4.13;2.90;;;30.20;62.50;;;;;;5002554;28;20034;-63
2023/06/24 11:26:52;;;;;;;7.82;3.00;;;30.50;64.00;;;;;;5002306;28;20029;-63
2023/06/24 11:29:18;;;;;;;6.38;3.55;;;30.60;64.00;;;;;;5001768;28;20113;-63
2023/06/24 11:31:45;;;;;;;4.82;3.00;;;30.40;65.90;;;;;;5007839;28;20029;-63
2023/06/24 11:34:10;;;;;;;6.18;3.42;;;30.60;62.20;;;;;;5001538;28;20026;-64
2023/06/24 11:36:36;;;;;;;7.43;3.78;;;30.30;63.80;;;;;;5006015;28;20101;-63
2023/06/24 11:39:03;;;;;;;5.80;3.35;;;30.20;62.40;;;;;;5000677;28;20034;-63
2023/06/24 11:41:28;;;;;;;4.72;2.80;;;30.10;61.90;;;;;;4999330;28;20127;-64
2023/06/24 11:43:57;;;;;;;6.75;3.33;;;30.20;65.60;;;;;;5001459;28;20050;-64
2023/06/24 11:46:36;;;;;;;4.35;2.90;;;30.20;61.60;;;;;;4999502;28;20066;-63
2023/06/24 11:49:05;;;;;;;9.88;3.38;;;30.10;64.60;;;;;;5003185;28;20019;-63
2023/06/24 11:51:30;;;;;;;4.63;3.28;;;30.10;62.80;;;;;;5003357;28;20014;-64
2023/06/24 11:54:00;;;;;;;6.25;3.63;;;30.10;63.50;;;;;;4992451;28;20100;-63
2023/06/24 11:56:39;;;;;;;3.92;2.75;;;30.00;64.30;;;;;;5003242;28;20018;-63
2023/06/24 11:59:05;;;;;;;8.07;3.13;;;30.20;64.50;;;;;;5006997;28;20757;-64
2023/06/24 12:01:37;;;;;;;4.95;3.42;;;30.00;66.00;;;;;;4993782;28;20027;-63
2023/06/24 12:04:11;;;;;;;6.47;3.13;;;29.60;66.40;;;;;;4995199;28;20033;-63
2023/06/24 12:06:36;;;;;;;;;;;29.60;64.90;;;;;;4997828;28;20038;-62
2023/06/24 12:09:02;;;;;;;5.30;3.33;;;29.60;67.00;;;;;;4991816;28;20402;-64
2023/06/24 12:11:27;;;;;;;5.57;3.58;;;29.70;63.60;;;;;;4997690;28;20141;-64
2023/06/24 12:13:53;;;;;;;5.28;3.22;;;29.80;63.50;;;;;;4998709;28;20041;-63
2023/06/24 12:16:18;;;;;;;7.22;3.10;;;30.00;64.40;;;;;;4997974;28;20025;-64
2023/06/24 12:21:10;;;;;;;5.85;3.30;;;29.60;65.60;;;;;;5057073;23;20065;-67
2023/06/24 12:23:36;;;;;;;5.50;2.80;;;29.40;65.90;;;;;;4998253;28;20033;-68
2023/06/24 12:26:01;;;;;;;5.57;3.20;;;29.30;67.60;;;;;;4996112;28;20035;-67
2023/06/24 12:28:27;;;;;;;4.85;3.20;;;29.20;63.40;;;;;;5003295;28;20026;-68
2023/06/24 12:30:53;;;;;;;5.72;3.25;;;29.50;65.20;;;;;;4997911;28;20032;-67
2023/06/24 12:33:20;;;;;;;7.00;3.00;;;29.40;63.90;;;;;;4998805;28;20031;-68
2023/06/24 12:35:46;;;;;;;6.80;4.05;;;29.50;63.70;;;;;;5002073;28;20018;-67
2023/06/24 12:38:12;;;;;;;6.70;3.17;;;29.50;63.10;;;;;;4991029;28;20101;-68
2023/06/24 12:40:37;;;;;;;4.93;3.63;;;29.60;64.40;;;;;;4989552;28;20054;-68
2023/06/24 12:43:04;;;;;;;5.60;3.70;;;29.30;65.00;;;;;;4990872;28;20120;-68
2023/06/24 12:45:29;;;;;;;5.82;3.20;;;29.20;66.00;;;;;;4991308;28;20507;-68
2023/06/24 12:47:55;;;;;;;4.38;3.10;;;28.90;64.40;;;;;;4991360;28;20030;-67
2023/06/24 12:50:21;;;;;;;7.43;3.05;;;29.00;63.60;;;;;;4999817;28;20030;-68